createdAt,value
2022-11-05T00:12:21.493Z,7.4
2022-11-05T00:26:21.489Z,7.8
2022-11-05T00:40:21.532Z,7.1
2022-11-05T00:54:21.524Z,6.8
2022-11-05T01:08:21.520Z,6.6
2022-11-05T01:22:21.524Z,6.7
2022-11-05T01:36:21.558Z,7.1
2022-11-05T01:50:21.531Z,7.0
2022-11-05T02:04:21.544Z,7.2
2022-11-05T02:18:21.541Z,7.1
2022-11-05T02:32:21.608Z,6.6
2022-11-05T02:46:22.040Z,6.4
2022-11-05T03:00:21.964Z,6.0
2022-11-05T03:14:21.958Z,6.3
2022-11-05T03:28:21.970Z,6.9
2022-11-05T03:42:21.978Z,6.2
2022-11-05T03:56:21.986Z,6.1
2022-11-05T04:10:22.005Z,6.1
2022-11-05T04:24:21.995Z,6.2
2022-11-05T04:38:22.012Z,5.8
2022-11-05T04:52:22.012Z,5.5
2022-11-05T05:06:22.038Z,5.3
2022-11-05T05:20:22.015Z,5.2
2022-11-05T05:34:22.032Z,5.5
2022-11-05T05:48:22.047Z,5.5
2022-11-05T06:03:22.164Z,5.2
2022-11-05T06:18:22.175Z,5.4
2022-11-05T06:34:22.183Z,5.3
2022-11-05T06:49:22.188Z,5.8
2022-11-05T07:04:22.293Z,6.1
2022-11-05T07:19:22.288Z,6.1
2022-11-05T07:34:22.275Z,8.0
2022-11-05T07:49:22.288Z,9.8
2022-11-05T08:04:22.288Z,11.4
2022-11-05T08:19:22.310Z,13.9
2022-11-05T08:34:22.497Z,15.4
2022-11-05T08:49:22.316Z,16.0
2022-11-05T09:04:22.290Z,16.2
2022-11-05T09:19:22.317Z,15.9
2022-11-05T09:34:22.320Z,16.9
2022-11-05T09:49:22.322Z,17.9
2022-11-05T10:04:22.344Z,16.3
2022-11-05T10:19:22.361Z,16.4
2022-11-05T10:34:22.356Z,16.9
2022-11-05T10:50:22.388Z,16.9
2022-11-05T11:05:22.389Z,16.7
2022-11-05T11:20:22.382Z,16.9
2022-11-05T11:35:22.396Z,17.5
2022-11-05T11:50:22.395Z,18.0
2022-11-05T12:05:22.416Z,18.4
2022-11-05T12:20:22.437Z,19.4
2022-11-05T12:36:22.444Z,19.3
2022-11-05T12:52:22.467Z,19.7
2022-11-05T13:08:22.455Z,19.9
2022-11-05T13:24:22.448Z,20.0
2022-11-05T13:40:22.455Z,19.7
2022-11-05T13:56:22.453Z,20.4
2022-11-05T14:12:22.451Z,20.3
2022-11-05T14:28:22.492Z,19.6
2022-11-05T14:44:22.465Z,20.2
2022-11-05T15:00:22.466Z,19.7
2022-11-05T15:16:22.481Z,17.1
2022-11-05T15:32:22.527Z,13.1
2022-11-05T15:48:22.553Z,11.5
2022-11-05T16:04:22.524Z,10.8
2022-11-05T16:20:22.535Z,10.5
2022-11-05T16:36:22.525Z,9.7
2022-11-05T16:51:26.344Z,9.1
2022-11-05T17:06:22.543Z,8.7
2022-11-05T17:21:22.560Z,8.5
2022-11-05T17:36:22.529Z,8.0
2022-11-05T17:51:22.546Z,8.0
2022-11-05T18:05:33.605Z,7.7
2022-11-05T18:20:33.604Z,7.8
2022-11-05T18:26:54.661Z,7.6
2022-11-05T18:40:54.601Z,7.3
2022-11-05T18:54:54.594Z,7.6
2022-11-05T19:08:54.665Z,7.7
2022-11-05T19:22:54.715Z,7.7
2022-11-05T19:36:54.726Z,8.6
2022-11-05T19:50:54.732Z,7.4
2022-11-05T20:04:54.760Z,7.0
2022-11-05T20:18:54.735Z,6.6
2022-11-05T20:32:54.704Z,6.4
2022-11-05T20:46:54.735Z,6.4
2022-11-05T21:00:54.752Z,6.3
2022-11-05T21:14:54.757Z,7.4
2022-11-05T21:28:54.746Z,8.0
2022-11-05T21:42:54.789Z,6.8
2022-11-05T21:56:54.794Z,6.3
2022-11-05T22:10:54.806Z,6.6
2022-11-05T22:24:55.087Z,6.3
2022-11-05T22:38:54.816Z,6.3
2022-11-05T22:52:54.828Z,6.7
2022-11-05T23:06:54.853Z,6.4
2022-11-05T23:20:54.932Z,6.2
2022-11-05T23:34:55.007Z,5.9
2022-11-05T23:48:55.005Z,5.6
